createdAt,value
2017-06-15T00:00:28.626Z,10.79
2017-06-15T00:01:28.632Z,10.75
2017-06-15T00:02:28.717Z,10.77
2017-06-15T00:03:28.630Z,10.74
2017-06-15T00:04:28.726Z,10.71
2017-06-15T00:05:28.691Z,10.68
2017-06-15T00:06:28.691Z,10.67
2017-06-15T00:07:28.690Z,10.63
2017-06-15T00:08:28.690Z,10.60
2017-06-15T00:09:28.688Z,10.58
2017-06-15T00:10:28.688Z,10.57
2017-06-15T00:11:28.690Z,10.56
2017-06-15T00:12:28.690Z,10.53
2017-06-15T00:13:28.690Z,10.52
2017-06-15T00:14:28.694Z,10.49
2017-06-15T00:15:28.708Z,10.47
2017-06-15T00:16:28.708Z,10.46
2017-06-15T00:17:28.710Z,10.45
2017-06-15T00:18:28.707Z,10.42
2017-06-15T00:19:28.722Z,10.45
2017-06-15T00:20:28.720Z,10.45
2017-06-15T00:21:28.714Z,10.42
2017-06-15T00:22:28.710Z,10.43
2017-06-15T00:23:28.712Z,10.43
2017-06-15T00:24:28.713Z,10.41
2017-06-15T00:25:28.710Z,10.41
2017-06-15T00:26:28.727Z,10.38
2017-06-15T00:27:28.720Z,10.36
2017-06-15T00:28:28.734Z,10.35
2017-06-15T00:29:28.648Z,10.34
2017-06-15T00:30:28.645Z,10.34
2017-06-15T00:31:28.730Z,10.32
2017-06-15T00:32:28.730Z,10.30
2017-06-15T00:33:28.729Z,10.28
2017-06-15T00:34:28.724Z,10.25
2017-06-15T00:35:28.657Z,10.25
2017-06-15T00:36:28.653Z,10.24
2017-06-15T00:37:28.838Z,10.23
2017-06-15T00:38:28.651Z,10.24
2017-06-15T00:39:28.711Z,10.21
2017-06-15T00:40:28.746Z,10.20
2017-06-15T00:41:28.740Z,10.20
2017-06-15T00:42:28.655Z,10.18
2017-06-15T00:43:28.700Z,10.20
2017-06-15T00:44:28.735Z,10.20
2017-06-15T00:45:28.723Z,10.17
2017-06-15T00:46:28.712Z,10.18
2017-06-15T00:47:28.711Z,10.17
2017-06-15T00:48:28.712Z,10.14
2017-06-15T00:49:28.708Z,10.13
2017-06-15T00:50:28.711Z,10.13
2017-06-15T00:51:28.711Z,10.16
2017-06-15T00:52:28.716Z,10.17
2017-06-15T00:53:28.712Z,10.25
2017-06-15T00:54:28.717Z,10.31
2017-06-15T00:55:28.713Z,10.31
2017-06-15T00:56:28.730Z,10.32
2017-06-15T00:57:28.757Z,10.34
2017-06-15T00:58:28.735Z,10.32
2017-06-15T00:59:28.731Z,10.30
2017-06-15T01:00:28.660Z,10.30
2017-06-15T01:01:28.751Z,10.27
2017-06-15T01:02:28.731Z,10.24
2017-06-15T01:03:28.760Z,10.21
2017-06-15T01:04:28.664Z,10.18
2017-06-15T01:05:28.749Z,10.16
2017-06-15T01:06:28.671Z,10.14
2017-06-15T01:07:28.664Z,10.13
2017-06-15T01:08:28.755Z,10.11
2017-06-15T01:09:28.761Z,10.11
2017-06-15T01:10:28.674Z,10.09
2017-06-15T01:11:28.715Z,10.14
2017-06-15T01:12:28.743Z,10.18
2017-06-15T01:13:28.667Z,10.17
2017-06-15T01:14:28.739Z,10.23
2017-06-15T01:15:28.744Z,10.36
2017-06-15T01:16:28.736Z,10.32
2017-06-15T01:17:28.740Z,10.30
2017-06-15T01:18:28.738Z,10.27
2017-06-15T01:19:28.739Z,10.25
2017-06-15T01:20:28.741Z,10.21
2017-06-15T01:21:28.745Z,10.20
2017-06-15T01:22:28.743Z,10.20
2017-06-15T01:23:28.743Z,10.17
2017-06-15T01:24:28.746Z,10.16
2017-06-15T01:25:28.746Z,10.13
2017-06-15T01:26:28.762Z,10.09
2017-06-15T01:27:28.726Z,10.11
2017-06-15T01:28:28.747Z,10.08
2017-06-15T01:29:28.784Z,10.06
2017-06-15T01:30:28.745Z,10.02
2017-06-15T01:31:28.770Z,10.01
2017-06-15T01:32:28.781Z,9.98
2017-06-15T01:33:28.774Z,10.00
2017-06-15T01:34:28.682Z,9.95
2017-06-15T01:35:28.767Z,9.90
2017-06-15T01:36:28.681Z,9.89
2017-06-15T01:37:28.767Z,9.95
2017-06-15T01:38:28.708Z,9.98
2017-06-15T01:39:28.765Z,10.02
2017-06-15T01:40:28.740Z,10.02
2017-06-15T01:41:28.772Z,10.04
2017-06-15T01:42:28.780Z,10.04
2017-06-15T01:43:28.768Z,10.04
2017-06-15T01:44:28.774Z,10.06
2017-06-15T01:45:28.762Z,10.13
2017-06-15T01:46:28.743Z,10.13
2017-06-15T01:47:28.827Z,10.11
2017-06-15T01:48:28.765Z,10.13
2017-06-15T01:49:28.772Z,10.06
2017-06-15T01:50:28.709Z,10.01
2017-06-15T01:51:28.753Z,9.97
2017-06-15T01:52:28.692Z,9.94
2017-06-15T01:53:28.787Z,9.89
2017-06-15T01:54:28.772Z,9.86
2017-06-15T01:55:28.750Z,9.83
2017-06-15T01:56:28.718Z,9.80
2017-06-15T01:57:28.687Z,9.76
2017-06-15T01:58:28.784Z,9.75
2017-06-15T01:59:28.691Z,9.73
2017-06-15T02:00:28.720Z,9.71
2017-06-15T02:01:28.788Z,9.71
2017-06-15T02:02:28.719Z,9.69
2017-06-15T02:03:28.719Z,9.71
2017-06-15T02:04:28.719Z,9.69
2017-06-15T02:05:28.696Z,9.68
2017-06-15T02:06:28.701Z,9.69
2017-06-15T02:07:28.768Z,9.68
2017-06-15T02:08:28.793Z,9.64
2017-06-15T02:09:28.772Z,9.62
2017-06-15T02:10:28.771Z,9.62
2017-06-15T02:11:28.769Z,9.64
2017-06-15T02:12:28.772Z,9.64
2017-06-15T02:13:28.849Z,9.65
2017-06-15T02:14:28.770Z,9.65
2017-06-15T02:15:28.770Z,9.64
2017-06-15T02:16:28.796Z,9.64
2017-06-15T02:17:28.725Z,9.61
2017-06-15T02:18:28.706Z,9.60
2017-06-15T02:19:28.785Z,9.57
2017-06-15T02:20:28.794Z,9.54
2017-06-15T02:21:28.787Z,9.54
2017-06-15T02:22:28.797Z,9.53
2017-06-15T02:23:28.800Z,9.51
2017-06-15T02:24:29.000Z,9.49
2017-06-15T02:25:28.784Z,9.49
2017-06-15T02:26:28.734Z,9.49
2017-06-15T02:27:28.694Z,9.47
2017-06-15T02:28:28.681Z,9.49
2017-06-15T02:29:28.679Z,9.50
2017-06-15T02:30:28.771Z,9.50
2017-06-15T02:31:28.663Z,9.47
2017-06-15T02:32:28.792Z,9.44
2017-06-15T02:33:28.773Z,9.42
2017-06-15T02:34:28.680Z,9.38
2017-06-15T02:35:28.774Z,9.36
2017-06-15T02:36:28.805Z,9.34
2017-06-15T02:37:28.714Z,9.34
2017-06-15T02:38:28.722Z,9.36
2017-06-15T02:39:28.810Z,9.34
2017-06-15T02:40:28.771Z,9.34
2017-06-15T02:41:28.717Z,9.34
2017-06-15T02:42:28.724Z,9.34
2017-06-15T02:43:28.797Z,9.34
2017-06-15T02:44:28.802Z,9.34
2017-06-15T02:45:28.794Z,9.34
2017-06-15T02:46:28.799Z,9.32
2017-06-15T02:47:28.813Z,9.32
2017-06-15T02:48:28.803Z,9.34
2017-06-15T02:49:28.779Z,9.36
2017-06-15T02:50:28.808Z,9.34
2017-06-15T02:51:28.773Z,9.32
2017-06-15T02:52:28.810Z,9.34
2017-06-15T02:53:28.816Z,9.31
2017-06-15T02:54:28.797Z,9.28
2017-06-15T02:55:28.833Z,9.27
2017-06-15T02:56:28.773Z,9.28
2017-06-15T02:57:28.727Z,9.28
2017-06-15T02:58:28.812Z,9.30
2017-06-15T02:59:28.807Z,9.28
2017-06-15T03:00:28.782Z,9.28
2017-06-15T03:01:28.804Z,9.28
2017-06-15T03:02:28.727Z,9.27
2017-06-15T03:03:28.784Z,9.27
2017-06-15T03:04:28.814Z,9.28
2017-06-15T03:05:28.735Z,9.30
2017-06-15T03:06:28.815Z,9.28
2017-06-15T03:07:28.804Z,9.30
2017-06-15T03:08:28.804Z,9.31
2017-06-15T03:09:28.802Z,9.31
2017-06-15T03:10:28.804Z,9.31
2017-06-15T03:11:28.806Z,9.32
2017-06-15T03:12:28.806Z,9.31
2017-06-15T03:13:28.804Z,9.28
2017-06-15T03:14:28.805Z,9.28
2017-06-15T03:15:28.805Z,9.27
2017-06-15T03:16:28.791Z,9.28
2017-06-15T03:17:28.816Z,9.27
2017-06-15T03:18:28.794Z,9.31
2017-06-15T03:19:28.792Z,9.34
2017-06-15T03:20:28.894Z,9.36
2017-06-15T03:21:28.793Z,9.39
2017-06-15T03:22:28.792Z,9.42
2017-06-15T03:23:28.794Z,9.42
2017-06-15T03:24:28.797Z,9.42
2017-06-15T03:25:28.793Z,9.40
2017-06-15T03:26:28.825Z,9.40
2017-06-15T03:27:28.824Z,9.40
2017-06-15T03:28:28.820Z,9.42
2017-06-15T03:29:28.830Z,9.42
2017-06-15T03:30:28.746Z,9.42
2017-06-15T03:31:28.789Z,9.40
2017-06-15T03:32:28.932Z,9.42
2017-06-15T03:33:28.812Z,9.43
2017-06-15T03:34:28.812Z,9.43
2017-06-15T03:35:28.830Z,9.43
2017-06-15T03:36:28.829Z,9.46
2017-06-15T03:37:28.809Z,9.50
2017-06-15T03:38:28.836Z,9.50
2017-06-15T03:39:28.826Z,9.51
2017-06-15T03:40:28.813Z,9.54
2017-06-15T03:41:28.750Z,9.54
2017-06-15T03:42:28.834Z,9.60
2017-06-15T03:43:28.744Z,9.62
2017-06-15T03:44:28.834Z,9.65
2017-06-15T03:45:28.745Z,9.68
2017-06-15T03:46:28.805Z,9.72
2017-06-15T03:47:28.803Z,9.75
2017-06-15T03:48:28.803Z,9.76
2017-06-15T03:49:28.811Z,9.79
2017-06-15T03:50:28.805Z,9.82
2017-06-15T03:51:28.805Z,9.82
2017-06-15T03:52:28.808Z,9.84
2017-06-15T03:53:28.810Z,9.83
2017-06-15T03:54:28.908Z,9.86
2017-06-15T03:55:28.808Z,9.87
2017-06-15T03:56:28.809Z,9.87
2017-06-15T03:57:28.810Z,9.87
2017-06-15T03:58:28.811Z,9.90
2017-06-15T03:59:28.811Z,9.91
2017-06-15T04:00:28.812Z,9.91
2017-06-15T04:01:28.826Z,9.93
2017-06-15T04:02:28.813Z,9.95
2017-06-15T04:03:28.841Z,9.98
2017-06-15T04:04:28.851Z,10.02
2017-06-15T04:05:28.817Z,10.05
2017-06-15T04:06:28.789Z,10.06
2017-06-15T04:07:28.852Z,10.09
2017-06-15T04:08:28.811Z,10.13
2017-06-15T04:09:28.848Z,10.17
2017-06-15T04:10:28.768Z,10.23
2017-06-15T04:11:28.772Z,10.24
2017-06-15T04:12:28.830Z,10.28
2017-06-15T04:13:28.852Z,10.31
2017-06-15T04:14:28.771Z,10.32
2017-06-15T04:15:28.767Z,10.36
2017-06-15T04:16:28.838Z,10.39
2017-06-15T04:17:28.834Z,10.42
2017-06-15T04:18:28.832Z,10.46
2017-06-15T04:19:28.836Z,10.53
2017-06-15T04:20:28.836Z,10.58
2017-06-15T04:21:28.840Z,10.61
2017-06-15T04:22:28.838Z,10.63
2017-06-15T04:23:28.838Z,10.64
2017-06-15T04:24:28.838Z,10.67
2017-06-15T04:25:28.842Z,10.67
2017-06-15T04:26:28.841Z,10.68
2017-06-15T04:27:28.841Z,10.68
2017-06-15T04:28:28.845Z,10.65
2017-06-15T04:29:28.842Z,10.65
2017-06-15T04:30:28.842Z,10.65
2017-06-15T04:31:28.841Z,10.67
2017-06-15T04:32:28.842Z,10.69
2017-06-15T04:33:28.840Z,10.71
2017-06-15T04:34:28.766Z,10.72
2017-06-15T04:35:28.840Z,10.77
2017-06-15T04:36:28.843Z,10.80
2017-06-15T04:37:28.833Z,10.83
2017-06-15T04:38:28.837Z,10.90
2017-06-15T04:39:28.834Z,10.93
2017-06-15T04:40:28.837Z,10.95
2017-06-15T04:41:28.835Z,11.03
2017-06-15T04:42:28.839Z,11.07
2017-06-15T04:43:28.837Z,11.09
2017-06-15T04:44:28.836Z,11.11
2017-06-15T04:45:28.838Z,11.17
2017-06-15T04:46:28.941Z,11.21
2017-06-15T04:47:28.849Z,11.25
2017-06-15T04:48:28.855Z,11.31
2017-06-15T04:49:28.852Z,11.38
2017-06-15T04:50:28.958Z,11.45
2017-06-15T04:51:28.961Z,11.51
2017-06-15T04:52:28.855Z,11.56
2017-06-15T04:53:28.861Z,11.64
2017-06-15T04:54:28.799Z,11.72
2017-06-15T04:55:28.858Z,11.78
2017-06-15T04:56:28.858Z,11.84
2017-06-15T04:57:28.856Z,11.94
2017-06-15T04:58:28.875Z,12.02
2017-06-15T04:59:28.869Z,12.09
2017-06-15T05:00:28.788Z,12.20
2017-06-15T05:01:28.977Z,12.29
2017-06-15T05:02:28.879Z,12.36
2017-06-15T05:03:28.795Z,12.44
2017-06-15T05:04:28.873Z,12.53
2017-06-15T05:05:28.888Z,12.58
2017-06-15T05:06:28.879Z,12.66
2017-06-15T05:07:28.775Z,12.72
2017-06-15T05:08:28.825Z,12.79
2017-06-15T05:09:28.788Z,12.86
2017-06-15T05:10:28.791Z,12.96
2017-06-15T05:11:28.785Z,13.05
2017-06-15T05:12:28.787Z,13.14
2017-06-15T05:13:28.827Z,13.24
2017-06-15T05:14:28.795Z,13.34
2017-06-15T05:15:28.839Z,13.42
2017-06-15T05:16:28.778Z,13.51
2017-06-15T05:17:28.893Z,13.68
2017-06-15T05:18:28.827Z,13.81
2017-06-15T05:19:28.836Z,14.00
2017-06-15T05:20:28.792Z,14.10
2017-06-15T05:21:28.783Z,14.14
2017-06-15T05:22:28.875Z,14.22
2017-06-15T05:23:28.807Z,14.33
2017-06-15T05:24:28.791Z,14.40
2017-06-15T05:25:28.800Z,14.47
2017-06-15T05:26:28.832Z,14.53
2017-06-15T05:27:28.813Z,14.64
2017-06-15T05:28:28.892Z,14.71
2017-06-15T05:29:28.809Z,14.76
2017-06-15T05:30:28.869Z,14.83
2017-06-15T05:31:28.853Z,14.87
2017-06-15T05:32:28.853Z,14.94
2017-06-15T05:33:28.887Z,15.02
2017-06-15T05:34:28.904Z,15.10
2017-06-15T05:35:28.820Z,15.14
2017-06-15T05:36:28.896Z,15.21
2017-06-15T05:37:28.898Z,15.32
2017-06-15T05:38:28.899Z,15.37
2017-06-15T05:39:28.893Z,15.48
2017-06-15T05:40:28.878Z,15.57
2017-06-15T05:41:28.897Z,15.65
2017-06-15T05:42:28.808Z,15.76
2017-06-15T05:43:28.811Z,15.86
2017-06-15T05:44:28.861Z,15.95
2017-06-15T05:45:28.898Z,16.09
2017-06-15T05:46:28.817Z,16.25
2017-06-15T05:47:28.874Z,16.43
2017-06-15T05:48:28.873Z,16.61
2017-06-15T05:49:28.872Z,16.79
2017-06-15T05:50:28.875Z,16.98
2017-06-15T05:51:28.872Z,17.13
2017-06-15T05:52:28.878Z,17.26
2017-06-15T05:53:28.873Z,17.39
2017-06-15T05:54:28.880Z,17.53
2017-06-15T05:55:28.877Z,17.65
2017-06-15T05:56:28.876Z,17.69
2017-06-15T05:57:28.821Z,17.75
2017-06-15T05:58:28.907Z,17.80
2017-06-15T05:59:28.909Z,17.75
2017-06-15T06:00:28.913Z,17.92
2017-06-15T06:01:28.825Z,18.05
2017-06-15T06:02:28.912Z,18.09
2017-06-15T06:03:28.903Z,18.18
2017-06-15T06:04:28.914Z,18.41
2017-06-15T06:05:28.968Z,18.58
2017-06-15T06:06:28.839Z,18.66
2017-06-15T06:07:28.875Z,18.81
2017-06-15T06:08:28.875Z,18.91
2017-06-15T06:09:28.890Z,18.90
2017-06-15T06:10:28.917Z,18.99
2017-06-15T06:11:28.828Z,19.15
2017-06-15T06:12:28.894Z,19.17
2017-06-15T06:13:28.917Z,19.16
2017-06-15T06:14:28.916Z,19.16
2017-06-15T06:15:28.941Z,19.17
2017-06-15T06:16:28.914Z,19.35
2017-06-15T06:17:28.837Z,19.43
2017-06-15T06:18:28.914Z,19.28
2017-06-15T06:19:28.837Z,19.21
2017-06-15T06:20:28.931Z,19.33
2017-06-15T06:21:28.918Z,19.39
2017-06-15T06:22:28.921Z,19.42
2017-06-15T06:23:28.900Z,19.33
2017-06-15T06:24:28.842Z,19.40
2017-06-15T06:25:28.931Z,19.35
2017-06-15T06:26:28.928Z,19.25
2017-06-15T06:27:28.925Z,19.29
2017-06-15T06:28:28.840Z,19.49
2017-06-15T06:29:28.923Z,19.53
2017-06-15T06:30:28.931Z,19.47
2017-06-15T06:31:28.934Z,19.60
2017-06-15T06:32:28.853Z,19.50
2017-06-15T06:33:28.923Z,19.53
2017-06-15T06:34:28.937Z,19.76
2017-06-15T06:35:28.847Z,19.94
2017-06-15T06:36:28.842Z,19.99
2017-06-15T06:37:28.923Z,20.05
2017-06-15T06:38:28.927Z,20.13
2017-06-15T06:39:28.930Z,19.98
2017-06-15T06:40:28.926Z,19.99
2017-06-15T06:41:28.934Z,19.85
2017-06-15T06:42:28.929Z,19.87
2017-06-15T06:43:28.939Z,19.80
2017-06-15T06:44:28.896Z,19.79
2017-06-15T06:45:28.934Z,19.96
2017-06-15T06:46:28.934Z,20.20
2017-06-15T06:47:28.916Z,20.41
2017-06-15T06:48:29.015Z,20.56
2017-06-15T06:49:28.914Z,20.64
2017-06-15T06:50:28.893Z,20.83
2017-06-15T06:51:28.917Z,20.88
2017-06-15T06:52:28.918Z,21.01
2017-06-15T06:53:29.005Z,20.99
2017-06-15T06:54:28.917Z,20.90
2017-06-15T06:55:28.919Z,21.06
2017-06-15T06:56:28.919Z,21.10
2017-06-15T06:57:28.840Z,21.28
2017-06-15T06:58:28.947Z,21.02
2017-06-15T06:59:28.946Z,20.73
2017-06-15T07:00:28.833Z,20.69
2017-06-15T07:01:28.899Z,20.83
2017-06-15T07:02:28.897Z,21.02
2017-06-15T07:03:28.903Z,21.16
2017-06-15T07:04:28.830Z,21.17
2017-06-15T07:05:28.893Z,21.21
2017-06-15T07:06:28.838Z,21.32
2017-06-15T07:07:28.923Z,21.29
2017-06-15T07:08:28.925Z,21.35
2017-06-15T07:09:28.923Z,21.27
2017-06-15T07:10:28.926Z,21.32
2017-06-15T07:11:28.932Z,21.40
2017-06-15T07:12:29.010Z,21.60
2017-06-15T07:13:28.933Z,21.69
2017-06-15T07:14:28.932Z,21.58
2017-06-15T07:15:28.957Z,21.82
2017-06-15T07:16:28.928Z,21.86
2017-06-15T07:17:28.936Z,21.91
2017-06-15T07:18:28.933Z,21.91
2017-06-15T07:19:28.930Z,21.94
2017-06-15T07:20:28.932Z,21.97
2017-06-15T07:21:29.036Z,22.25
2017-06-15T07:22:28.937Z,22.39
2017-06-15T07:23:28.937Z,22.45
2017-06-15T07:24:28.934Z,22.46
2017-06-15T07:25:28.939Z,22.53
2017-06-15T07:26:28.938Z,22.72
2017-06-15T07:27:28.959Z,22.63
2017-06-15T07:28:28.934Z,22.63
2017-06-15T07:29:28.956Z,22.75
2017-06-15T07:30:28.949Z,22.88
2017-06-15T07:31:28.955Z,22.91
2017-06-15T07:32:28.958Z,22.93
2017-06-15T07:33:28.973Z,22.91
2017-06-15T07:34:28.880Z,23.04
2017-06-15T07:35:28.919Z,23.09
2017-06-15T07:36:28.960Z,23.04
2017-06-15T07:37:28.883Z,23.22
2017-06-15T07:38:28.880Z,23.37
2017-06-15T07:39:28.960Z,23.11
2017-06-15T07:40:28.958Z,22.93
2017-06-15T07:41:28.885Z,22.90
2017-06-15T07:42:28.956Z,23.01
2017-06-15T07:43:28.963Z,23.05
2017-06-15T07:44:28.976Z,23.12
2017-06-15T07:45:28.973Z,23.16
2017-06-15T07:46:28.968Z,23.17
2017-06-15T07:47:28.950Z,23.31
2017-06-15T07:48:28.950Z,23.49
2017-06-15T07:49:28.950Z,23.68
2017-06-15T07:50:28.950Z,23.82
2017-06-15T07:51:28.955Z,23.87
2017-06-15T07:52:28.951Z,23.91
2017-06-15T07:53:29.055Z,23.75
2017-06-15T07:54:28.951Z,23.44
2017-06-15T07:55:29.034Z,23.58
2017-06-15T07:56:28.952Z,23.54
2017-06-15T07:57:28.955Z,23.30
2017-06-15T07:58:28.940Z,23.44
2017-06-15T07:59:28.942Z,23.61
2017-06-15T08:00:28.943Z,23.71
2017-06-15T08:01:28.946Z,23.82
2017-06-15T08:02:28.944Z,23.64
2017-06-15T08:03:28.945Z,23.86
2017-06-15T08:04:28.946Z,24.04
2017-06-15T08:05:28.951Z,24.14
2017-06-15T08:06:29.046Z,24.23
2017-06-15T08:07:28.976Z,24.40
2017-06-15T08:08:29.101Z,24.26
2017-06-15T08:09:28.981Z,23.89
2017-06-15T08:10:28.901Z,23.83
2017-06-15T08:11:28.955Z,23.71
2017-06-15T08:12:28.897Z,23.60
2017-06-15T08:13:28.896Z,23.79
2017-06-15T08:14:28.943Z,23.67
2017-06-15T08:15:28.983Z,23.78
2017-06-15T08:16:28.979Z,23.68
2017-06-15T08:17:28.981Z,23.51
2017-06-15T08:18:28.985Z,23.47
2017-06-15T08:19:28.908Z,23.50
2017-06-15T08:20:28.985Z,23.71
2017-06-15T08:21:28.907Z,23.90
2017-06-15T08:22:28.950Z,23.98
2017-06-15T08:23:28.948Z,24.20
2017-06-15T08:24:28.907Z,24.04
2017-06-15T08:25:28.904Z,23.80
2017-06-15T08:26:28.985Z,23.82
2017-06-15T08:27:28.983Z,23.87
2017-06-15T08:28:28.971Z,23.75
2017-06-15T08:29:28.970Z,23.78
2017-06-15T08:30:28.973Z,23.69
2017-06-15T08:31:28.967Z,23.53
2017-06-15T08:32:28.975Z,23.49
2017-06-15T08:33:28.973Z,23.35
2017-06-15T08:34:28.978Z,23.57
2017-06-15T08:35:28.975Z,23.61
2017-06-15T08:36:28.977Z,23.75
2017-06-15T08:37:28.986Z,23.97
2017-06-15T08:38:28.975Z,24.20
2017-06-15T08:39:28.915Z,24.48
2017-06-15T08:40:28.916Z,24.67
2017-06-15T08:41:28.912Z,24.72
2017-06-15T08:42:29.002Z,24.70
2017-06-15T08:43:29.003Z,24.67
2017-06-15T08:44:28.989Z,24.64
2017-06-15T08:45:28.994Z,24.36
2017-06-15T08:46:28.918Z,24.37
2017-06-15T08:47:29.003Z,24.53
2017-06-15T08:48:28.906Z,24.72
2017-06-15T08:49:28.893Z,24.89
2017-06-15T08:50:28.946Z,25.01
2017-06-15T08:51:28.990Z,25.00
2017-06-15T08:52:28.998Z,25.26
2017-06-15T08:53:28.902Z,25.27
2017-06-15T08:54:28.885Z,25.44
2017-06-15T08:55:28.910Z,25.52
2017-06-15T08:56:28.987Z,25.66
2017-06-15T08:57:28.917Z,25.82
2017-06-15T08:58:28.987Z,25.95
2017-06-15T08:59:28.990Z,25.93
2017-06-15T09:00:29.004Z,26.07
2017-06-15T09:01:28.991Z,26.11
2017-06-15T09:02:28.995Z,26.19
2017-06-15T09:03:28.987Z,26.21
2017-06-15T09:04:28.972Z,26.18
2017-06-15T09:05:28.981Z,26.18
2017-06-15T09:06:29.006Z,26.44
2017-06-15T09:07:28.991Z,26.55
2017-06-15T09:08:28.997Z,26.52
2017-06-15T09:09:28.994Z,26.55
2017-06-15T09:10:28.991Z,26.52
2017-06-15T09:11:28.998Z,26.56
2017-06-15T09:12:28.993Z,26.70
2017-06-15T09:13:28.995Z,26.58
2017-06-15T09:14:28.997Z,26.29
2017-06-15T09:15:28.999Z,26.03
2017-06-15T09:16:29.000Z,25.81
2017-06-15T09:17:28.994Z,25.66
2017-06-15T09:18:28.999Z,25.41
2017-06-15T09:19:28.994Z,25.22
2017-06-15T09:20:28.995Z,25.41
2017-06-15T09:21:29.000Z,25.60
2017-06-15T09:22:28.995Z,25.86
2017-06-15T09:23:28.920Z,26.03
2017-06-15T09:24:28.920Z,26.14
2017-06-15T09:25:28.905Z,26.17
2017-06-15T09:26:28.922Z,25.97
2017-06-15T09:27:28.921Z,26.29
2017-06-15T09:28:28.919Z,26.55
2017-06-15T09:29:28.904Z,26.72
2017-06-15T09:30:28.923Z,26.68
2017-06-15T09:31:28.850Z,26.85
2017-06-15T09:32:28.922Z,27.04
2017-06-15T09:33:28.980Z,27.17
2017-06-15T09:34:29.007Z,27.29
2017-06-15T09:35:28.920Z,27.43
2017-06-15T09:36:29.008Z,27.48
2017-06-15T09:37:29.013Z,27.39
2017-06-15T09:38:29.012Z,27.54
2017-06-15T09:39:29.037Z,27.61
2017-06-15T09:40:29.011Z,27.46
2017-06-15T09:41:29.037Z,27.46
2017-06-15T09:42:29.013Z,26.81
2017-06-15T09:43:29.013Z,26.89
2017-06-15T09:44:29.012Z,26.93
2017-06-15T09:45:29.015Z,27.00
2017-06-15T09:46:29.012Z,27.17
2017-06-15T09:47:29.014Z,27.28
2017-06-15T09:48:29.014Z,27.47
2017-06-15T09:49:29.012Z,27.40
2017-06-15T09:50:29.016Z,27.21
2017-06-15T09:51:29.014Z,27.12
2017-06-15T09:52:29.012Z,27.21
2017-06-15T09:53:29.012Z,27.23
2017-06-15T09:54:29.019Z,27.33
2017-06-15T09:55:29.018Z,27.36
2017-06-15T09:56:29.017Z,27.47
2017-06-15T09:57:29.025Z,27.70
2017-06-15T09:58:29.020Z,27.73
2017-06-15T09:59:29.021Z,27.74
2017-06-15T10:00:29.021Z,27.84
2017-06-15T10:01:29.021Z,27.88
2017-06-15T10:02:29.032Z,28.03
2017-06-15T10:03:29.021Z,28.09
2017-06-15T10:04:29.042Z,28.13
2017-06-15T10:05:29.043Z,28.02
2017-06-15T10:06:29.043Z,27.85
2017-06-15T10:07:29.051Z,27.68
2017-06-15T10:08:28.959Z,27.65
2017-06-15T10:09:29.097Z,27.75
2017-06-15T10:10:29.040Z,27.65
2017-06-15T10:11:29.054Z,27.74
2017-06-15T10:12:29.053Z,27.65
2017-06-15T10:13:29.057Z,27.58
2017-06-15T10:14:29.013Z,27.58
2017-06-15T10:15:28.959Z,27.41
2017-06-15T10:16:29.008Z,27.41
2017-06-15T10:17:29.008Z,27.58
2017-06-15T10:18:28.960Z,27.62
2017-06-15T10:19:29.052Z,27.57
2017-06-15T10:20:29.153Z,27.73
2017-06-15T10:21:29.056Z,27.80
2017-06-15T10:22:29.048Z,27.62
2017-06-15T10:23:29.035Z,27.77
2017-06-15T10:24:29.034Z,27.84
2017-06-15T10:25:28.997Z,28.09
2017-06-15T10:26:29.031Z,28.24
2017-06-15T10:27:29.055Z,28.14
2017-06-15T10:28:28.970Z,28.11
2017-06-15T10:29:29.057Z,28.25
2017-06-15T10:30:28.977Z,28.35
2017-06-15T10:31:28.973Z,28.49
2017-06-15T10:32:28.967Z,28.31
2017-06-15T10:33:29.016Z,28.42
2017-06-15T10:34:29.030Z,28.55
2017-06-15T10:35:29.053Z,28.60
2017-06-15T10:36:29.026Z,28.58
2017-06-15T10:37:29.028Z,28.50
2017-06-15T10:38:29.029Z,28.49
2017-06-15T10:39:29.035Z,28.61
2017-06-15T10:40:29.033Z,28.42
2017-06-15T10:41:29.031Z,28.40
2017-06-15T10:42:29.133Z,28.60
2017-06-15T10:43:29.033Z,28.83
2017-06-15T10:44:29.032Z,28.71
2017-06-15T10:45:29.036Z,28.87
2017-06-15T10:46:29.032Z,29.02
2017-06-15T10:47:29.037Z,29.06
2017-06-15T10:48:29.035Z,29.16
2017-06-15T10:49:29.036Z,29.21
2017-06-15T10:50:29.038Z,29.05
2017-06-15T10:51:29.034Z,29.13
2017-06-15T10:52:29.042Z,29.29
2017-06-15T10:53:29.038Z,29.24
2017-06-15T10:54:29.068Z,29.40
2017-06-15T10:55:28.989Z,29.24
2017-06-15T10:56:29.070Z,29.25
2017-06-15T10:57:29.065Z,29.27
2017-06-15T10:58:29.076Z,29.37
2017-06-15T10:59:29.082Z,29.20
2017-06-15T11:00:29.041Z,29.39
2017-06-15T11:01:28.982Z,29.37
2017-06-15T11:02:28.989Z,29.57
2017-06-15T11:03:29.054Z,29.54
2017-06-15T11:04:29.059Z,29.43
2017-06-15T11:05:29.060Z,29.24
2017-06-15T11:06:29.060Z,29.16
2017-06-15T11:07:29.061Z,29.18
2017-06-15T11:08:29.061Z,29.21
2017-06-15T11:09:29.061Z,29.31
2017-06-15T11:10:29.059Z,29.47
2017-06-15T11:11:29.053Z,28.83
2017-06-15T11:12:29.061Z,28.61
2017-06-15T11:13:29.061Z,28.82
2017-06-15T11:14:29.047Z,28.90
2017-06-15T11:15:29.046Z,28.71
2017-06-15T11:16:29.048Z,28.87
2017-06-15T11:17:29.046Z,28.88
2017-06-15T11:18:29.050Z,28.87
2017-06-15T11:19:29.047Z,28.97
2017-06-15T11:20:29.050Z,28.61
2017-06-15T11:21:29.050Z,28.37
2017-06-15T11:22:29.052Z,27.99
2017-06-15T11:23:29.050Z,27.89
2017-06-15T11:24:28.988Z,27.98
2017-06-15T11:25:29.027Z,27.98
2017-06-15T11:26:29.026Z,28.03
2017-06-15T11:27:29.026Z,28.09
2017-06-15T11:28:28.996Z,27.95
2017-06-15T11:29:28.979Z,27.98
2017-06-15T11:30:29.033Z,28.14
2017-06-15T11:31:28.996Z,28.25
2017-06-15T11:32:29.093Z,28.44
2017-06-15T11:33:29.049Z,28.43
2017-06-15T11:34:29.008Z,28.66
2017-06-15T11:35:29.014Z,28.62
2017-06-15T11:36:29.005Z,28.80
2017-06-15T11:37:29.049Z,28.95
2017-06-15T11:38:29.085Z,28.86
2017-06-15T11:39:29.093Z,28.72
2017-06-15T11:40:29.100Z,28.73
2017-06-15T11:41:29.099Z,28.76
2017-06-15T11:42:29.095Z,28.60
2017-06-15T11:43:29.067Z,28.57
2017-06-15T11:44:29.095Z,28.68
2017-06-15T11:45:29.053Z,28.91
2017-06-15T11:46:29.057Z,29.04
2017-06-15T11:47:29.098Z,29.14
2017-06-15T11:48:29.095Z,29.28
2017-06-15T11:49:29.015Z,29.52
2017-06-15T11:50:29.018Z,29.75
2017-06-15T11:51:29.015Z,29.87
2017-06-15T11:52:29.077Z,29.90
2017-06-15T11:53:29.098Z,29.44
2017-06-15T11:54:29.000Z,29.35
2017-06-15T11:55:29.043Z,29.47
2017-06-15T11:56:29.005Z,29.52
2017-06-15T11:57:29.045Z,29.50
2017-06-15T11:58:29.005Z,29.24
2017-06-15T11:59:29.001Z,29.57
2017-06-15T12:00:29.011Z,29.86
2017-06-15T12:01:29.047Z,29.94
2017-06-15T12:02:29.005Z,29.94
2017-06-15T12:03:29.047Z,30.16
2017-06-15T12:04:29.103Z,30.17
2017-06-15T12:05:29.092Z,29.90
2017-06-15T12:06:29.092Z,29.76
2017-06-15T12:07:29.089Z,29.94
2017-06-15T12:08:29.091Z,30.24
2017-06-15T12:09:29.093Z,30.41
2017-06-15T12:10:29.093Z,30.45
2017-06-15T12:11:29.094Z,30.65
2017-06-15T12:12:29.093Z,30.48
2017-06-15T12:13:29.096Z,30.39
2017-06-15T12:14:29.081Z,30.21
2017-06-15T12:15:29.082Z,29.84
2017-06-15T12:16:29.086Z,30.10
2017-06-15T12:17:29.084Z,30.16
2017-06-15T12:18:29.085Z,30.16
2017-06-15T12:19:29.085Z,30.27
2017-06-15T12:20:29.085Z,30.28
2017-06-15T12:21:29.085Z,30.24
2017-06-15T12:22:29.088Z,29.98
2017-06-15T12:23:29.087Z,29.88
2017-06-15T12:24:29.122Z,29.76
2017-06-15T12:25:29.094Z,29.76
2017-06-15T12:26:29.117Z,29.75
2017-06-15T12:27:29.081Z,29.75
2017-06-15T12:28:29.117Z,29.77
2017-06-15T12:29:29.079Z,29.41
2017-06-15T12:30:29.121Z,29.27
2017-06-15T12:31:29.120Z,29.21
2017-06-15T12:32:29.098Z,29.28
2017-06-15T12:33:29.123Z,29.41
2017-06-15T12:34:29.031Z,29.23
2017-06-15T12:35:29.122Z,29.05
2017-06-15T12:36:29.101Z,29.01
2017-06-15T12:37:29.036Z,28.94
2017-06-15T12:38:29.126Z,28.99
2017-06-15T12:39:29.124Z,28.99
2017-06-15T12:40:29.047Z,28.87
2017-06-15T12:41:29.128Z,28.88
2017-06-15T12:42:29.128Z,28.73
2017-06-15T12:43:29.092Z,28.57
2017-06-15T12:44:29.130Z,28.57
2017-06-15T12:45:29.103Z,28.60
2017-06-15T12:46:29.098Z,28.64
2017-06-15T12:47:29.100Z,28.61
2017-06-15T12:48:29.099Z,28.46
2017-06-15T12:49:29.102Z,28.29
2017-06-15T12:50:29.101Z,28.37
2017-06-15T12:51:29.103Z,28.43
2017-06-15T12:52:29.097Z,28.42
2017-06-15T12:53:29.104Z,28.54
2017-06-15T12:54:29.202Z,28.65
2017-06-15T12:55:29.138Z,28.61
2017-06-15T12:56:29.100Z,28.64
2017-06-15T12:57:29.136Z,28.49